Time;durP1;ratioP1;P1;durP2;ratioP2;P2;SDS_P1;SDS_P2;PMS_P1;PMS_P2;Temp;Humidity;BMP_temperature;BMP_pressure;BME280_temperature;BME280_humidity;BME280_pressure;Samples;Min_cycle;Max_cycle;Signal;HPM_P1;HPM_P2
2022/11/11 00:01:05;;;;;;;;;;;26.10;90.20;;;;;;5058760;28;19925;-73
2022/11/11 00:03:32;;;;;;;;;;;26.40;90.00;;;;;;5061699;28;19943;-73
2022/11/11 00:06:05;;;;;;;;;;;26.60;88.60;;;;;;5060808;28;20019;-72
2022/11/11 00:08:33;;;;;;;;;;;26.40;88.50;;;;;;5061015;28;19920;-74
2022/11/11 00:11:03;;;;;;;;;;;26.40;89.00;;;;;;5061201;28;19920;-71
2022/11/11 00:13:30;;;;;;;;;;;26.40;90.10;;;;;;5059616;28;19917;-75
2022/11/11 00:16:02;;;;;;;;;;;26.60;90.10;;;;;;5061006;28;19922;-74
2022/11/11 00:25:04;;;;;;;;;;;27.30;88.50;;;;;;5069799;28;19978;-74
2022/11/11 00:27:11;;;;;;;;;;;27.00;88.10;;;;;;5064158;28;20023;-73
2022/11/11 00:29:38;;;;;;;;;;;27.30;88.00;;;;;;5064198;28;19912;-73
2022/11/11 00:32:26;;;;;;;;;;;27.40;85.30;;;;;;5065691;28;19919;-70
2022/11/11 00:37:38;;;;;;;;;;;27.60;85.70;;;;;;5065337;28;19928;-76
2022/11/11 00:40:06;;;;;;;;;;;27.80;87.20;;;;;;5064626;28;19912;-73
2022/11/11 00:42:32;;;;;;;;;;;27.90;86.40;;;;;;5063163;28;20370;-75
2022/11/11 00:44:59;;;;;;;;;;;28.00;85.60;;;;;;5063048;28;20207;-71
2022/11/11 00:53:08;;;;;;;;;;;27.80;85.60;;;;;;5066068;28;19920;-70
2022/11/11 00:55:34;;;;;;;;;;;28.00;85.20;;;;;;5062740;28;20648;-75
2022/11/11 00:58:01;;;;;;;;;;;28.10;83.40;;;;;;5063264;28;19928;-72
2022/11/11 01:00:27;;;;;;;;;;;28.10;84.60;;;;;;5060027;28;20358;-74
2022/11/11 01:02:54;;;;;;;;;;;28.30;83.70;;;;;;5060719;28;19916;-72
2022/11/11 01:05:21;;;;;;;;;;;28.50;82.00;;;;;;5064934;28;19916;-73
2022/11/11 01:07:51;;;;;;;;;;;28.60;80.40;;;;;;5068490;28;19950;-74
2022/11/11 01:10:37;;;;;;;;;;;28.60;80.90;;;;;;5069650;28;19916;-74
2022/11/11 01:13:13;;;;;;;;;;;28.60;80.50;;;;;;5063554;28;19921;-77
2022/11/11 01:15:40;;;;;;;;;;;28.60;80.50;;;;;;5069063;28;20767;-75
2022/11/11 01:18:07;;;;;;;;;;;28.60;80.80;;;;;;5064999;28;19931;-72
2022/11/11 01:20:37;;;;;;;;;;;29.00;81.60;;;;;;5070935;28;19924;-72
2022/11/11 01:23:04;;;;;;;;;;;29.00;80.40;;;;;;5062199;28;19970;-74
2022/11/11 01:25:34;;;;;;;;;;;28.60;81.00;;;;;;5067918;28;20014;-72
2022/11/11 01:28:01;;;;;;;;;;;27.80;80.80;;;;;;5067176;28;19936;-73
2022/11/11 01:30:28;;;;;;;;;;;27.40;81.80;;;;;;5066842;28;19921;-73
2022/11/11 01:32:55;;;;;;;;;;;27.20;82.40;;;;;;5065066;28;19921;-73
2022/11/11 01:35:21;;;;;;;;;;;27.10;84.40;;;;;;5064464;28;19951;-77
2022/11/11 01:37:48;;;;;;;;;;;27.30;84.00;;;;;;5062411;28;19920;-76
2022/11/11 01:40:15;;;;;;;;;;;27.40;82.70;;;;;;5061371;28;19916;-77
2022/11/11 01:42:52;;;;;;;;;;;27.80;84.10;;;;;;5062887;28;20362;-76
2022/11/11 01:45:37;;;;;;;;;;;28.40;81.90;;;;;;5062403;28;19917;-77
2022/11/11 01:50:49;;;;;;;;;;;28.70;82.10;;;;;;5070267;28;20320;-73
2022/11/11 01:53:15;;;;;;;;;;;28.50;80.80;;;;;;5064262;28;19948;-74
2022/11/11 01:55:42;;;;;;;;;;;28.40;80.90;;;;;;5067457;28;19931;-73
2022/11/11 01:58:12;;;;;;;;;;;28.30;82.00;;;;;;5067270;28;19920;-72
2022/11/11 02:00:39;;;;;;;;;;;28.30;80.60;;;;;;5066285;28;19913;-73
2022/11/11 02:03:07;;;;;;;;;;;28.40;82.20;;;;;;5070384;28;19920;-74
2022/11/11 02:05:46;;;;;;;;;;;28.30;81.40;;;;;;5066109;28;19998;-72
2022/11/11 02:08:31;;;;;;;;;;;28.30;82.50;;;;;;5061553;28;19942;-74
2022/11/11 02:11:02;;;;;;;;;;;28.60;81.80;;;;;;5064011;28;20880;-76
2022/11/11 02:16:15;;;;;;;;;;;30.30;80.80;;;;;;5064372;28;19928;-72
2022/11/11 02:18:42;;;;;;;;;;;30.30;79.10;;;;;;5060460;28;19971;-73
2022/11/11 02:21:14;;;;;;;;;;;29.90;79.50;;;;;;5062510;28;19931;-73
2022/11/11 02:23:47;;;;;;;;;;;29.50;80.80;;;;;;5059640;28;19916;-74
2022/11/11 02:26:16;;;;;;;;;;;29.60;80.60;;;;;;5061037;28;19983;-73
2022/11/11 02:28:43;;;;;;;;;;;29.60;80.60;;;;;;5063024;28;19928;-72
2022/11/11 02:31:13;;;;;;;;;;;29.70;80.90;;;;;;5063298;28;20327;-73
2022/11/11 02:33:39;;;;;;;;;;;29.40;80.60;;;;;;5059261;28;19963;-72
2022/11/11 02:36:09;;;;;;;;;;;29.60;81.50;;;;;;5060532;28;20450;-74
2022/11/11 02:38:36;;;;;;;;;;;29.90;82.90;;;;;;5061526;28;19953;-72
2022/11/11 02:43:47;;;;;;;;;;;30.50;81.10;;;;;;5061717;28;19923;-73
2022/11/11 02:46:14;;;;;;;;;;;30.30;80.70;;;;;;5061932;28;19912;-73
2022/11/11 02:48:41;;;;;;;;;;;29.80;80.80;;;;;;5060085;28;20400;-75
2022/11/11 02:51:08;;;;;;;;;;;29.40;80.40;;;;;;5066858;28;19952;-74
2022/11/11 02:53:34;;;;;;;;;;;29.20;82.00;;;;;;5060417;28;19917;-74
2022/11/11 02:56:01;;;;;;;;;;;29.10;81.30;;;;;;5061810;28;20027;-78
2022/11/11 02:58:28;;;;;;;;;;;28.80;82.00;;;;;;5066850;28;20364;-78
2022/11/11 03:00:54;;;;;;;;;;;28.70;82.50;;;;;;5065907;28;19916;-78
2022/11/11 03:03:21;;;;;;;;;;;28.50;83.10;;;;;;5065768;28;20395;-77
2022/11/11 03:05:48;;;;;;;;;;;28.20;82.60;;;;;;5065670;28;19995;-77
2022/11/11 03:08:14;;;;;;;;;;;27.90;82.50;;;;;;5070407;28;19931;-79
2022/11/11 03:10:41;;;;;;;;;;;27.50;83.70;;;;;;5077182;28;19920;-78
2022/11/11 03:13:08;;;;;;;;;;;27.30;83.80;;;;;;5063518;28;19912;-77
2022/11/11 03:15:35;;;;;;;;;;;27.10;83.90;;;;;;5060521;28;20050;-78
2022/11/11 03:18:01;;;;;;;;;;;26.80;84.40;;;;;;5061104;28;19920;-77
2022/11/11 03:23:14;;;;;;;;;;;26.60;85.00;;;;;;5061158;28;19923;-73
2022/11/11 03:25:44;;;;;;;;;;;26.40;85.20;;;;;;5064464;28;20698;-74
2022/11/11 03:28:13;;;;;;;;;;;26.30;85.50;;;;;;5064148;28;19966;-73
2022/11/11 03:30:44;;;;;;;;;;;26.20;88.10;;;;;;5061321;28;19951;-71
2022/11/11 03:33:11;;;;;;;;;;;26.00;90.30;;;;;;5069734;28;20275;-73
2022/11/11 03:35:38;;;;;;;;;;;25.50;93.50;;;;;;5064714;28;19924;-70
2022/11/11 03:38:23;;;;;;;;;;;25.10;94.30;;;;;;5063238;28;19935;-74
2022/11/11 03:40:58;;;;;;;;;;;24.70;95.70;;;;;;5045104;28;20427;-73
2022/11/11 03:43:26;;;;;;;;;;;24.40;97.30;;;;;;5064589;28;19919;-73
2022/11/11 03:45:54;;;;;;;;;;;24.20;98.20;;;;;;5061926;28;20455;-74
2022/11/11 03:48:21;;;;;;;;;;;24.10;98.10;;;;;;5064555;28;19919;-74
2022/11/11 03:50:48;;;;;;;;;;;24.00;98.00;;;;;;5061888;28;19916;-73
2022/11/11 03:53:15;;;;;;;;;;;23.90;98.20;;;;;;5068362;28;20351;-71
2022/11/11 03:55:42;;;;;;;;;;;23.90;98.10;;;;;;5069106;28;20422;-72
2022/11/11 03:58:08;;;;;;;;;;;23.90;98.20;;;;;;5068654;28;20382;-73
2022/11/11 04:00:35;;;;;;;;;;;23.90;98.70;;;;;;5059275;28;19913;-73
2022/11/11 04:11:26;;;;;;;;;;;23.80;98.00;;;;;;5068075;28;19931;-74
2022/11/11 04:16:38;;;;;;;;;;;23.90;97.50;;;;;;5059785;28;19924;-75
2022/11/11 04:21:49;;;;;;;;;;;24.10;96.30;;;;;;5064256;28;19918;-71
2022/11/11 04:27:06;;;;;;;;;;;24.20;96.00;;;;;;5071006;28;19938;-71
2022/11/11 04:29:33;;;;;;;;;;;24.20;96.10;;;;;;5068556;28;19938;-68
2022/11/11 04:34:47;;;;;;;;;;;24.10;95.40;;;;;;5070364;28;20011;-74
2022/11/11 04:37:14;;;;;;;;;;;24.00;97.60;;;;;;5069596;28;19962;-72
2022/11/11 04:42:26;;;;;;;;;;;23.90;96.10;;;;;;5072988;28;20001;-72
2022/11/11 04:47:38;;;;;;;;;;;23.80;96.90;;;;;;5067792;28;19928;-72
2022/11/11 04:50:05;;;;;;;;;;;23.80;96.50;;;;;;5072005;28;19916;-72
2022/11/11 04:52:31;;;;;;;;;;;23.70;97.00;;;;;;5063980;28;19938;-69
2022/11/11 04:57:45;;;;;;;;;;;23.70;97.50;;;;;;5065330;28;19947;-72
2022/11/11 05:00:13;;;;;;;;;;;23.60;97.50;;;;;;5062788;28;19920;-72
2022/11/11 05:05:25;;;;;;;;;;;23.70;98.00;;;;;;5061097;28;19927;-69
2022/11/11 05:10:37;;;;;;;;;;;23.70;98.40;;;;;;5065645;28;19958;-71
2022/11/11 05:21:30;;;;;;;;;;;23.70;99.90;;;;;;5066063;28;19997;-74
2022/11/11 05:26:41;;;;;;;;;;;23.60;99.90;;;;;;5062884;28;19975;-73
2022/11/11 05:29:08;;;;;;;;;;;23.60;99.40;;;;;;5065055;28;19920;-75
2022/11/11 05:31:35;;;;;;;;;;;23.50;99.80;;;;;;5067210;28;19946;-78
2022/11/11 05:34:01;;;;;;;;;;;23.60;99.90;;;;;;5065401;28;19920;-76
2022/11/11 05:36:28;;;;;;;;;;;23.70;98.60;;;;;;5065849;28;19916;-75
2022/11/11 05:38:55;;;;;;;;;;;23.70;99.30;;;;;;5064056;28;19928;-76
2022/11/11 05:41:21;;;;;;;;;;;23.80;99.00;;;;;;5064829;28;19913;-74
2022/11/11 05:43:48;;;;;;;;;;;23.90;98.80;;;;;;5070578;28;19916;-76
2022/11/11 05:46:15;;;;;;;;;;;24.00;98.60;;;;;;5056829;28;19923;-76
2022/11/11 05:49:14;;;;;;;;;;;24.10;99.00;;;;;;5065047;28;19920;-75
2022/11/11 05:51:28;;;;;;;;;;;24.10;97.80;;;;;;5062524;28;19927;-73
2022/11/11 05:53:55;;;;;;;;;;;24.20;98.10;;;;;;5066313;28;19920;-76
2022/11/11 05:56:22;;;;;;;;;;;24.30;97.60;;;;;;5071020;28;19920;-76
2022/11/11 05:58:48;;;;;;;;;;;24.30;97.30;;;;;;5067975;28;19924;-73
2022/11/11 06:01:15;;;;;;;;;;;24.30;97.90;;;;;;5062307;28;20003;-73
2022/11/11 06:03:42;;;;;;;;;;;24.30;97.40;;;;;;5060131;28;19912;-72
2022/11/11 06:06:08;;;;;;;;;;;24.20;97.50;;;;;;5070032;28;19913;-72
2022/11/11 06:08:35;;;;;;;;;;;24.10;97.20;;;;;;5061334;28;20396;-74
2022/11/11 06:11:02;;;;;;;;;;;24.10;97.30;;;;;;5069258;28;19912;-73
2022/11/11 06:13:28;;;;;;;;;;;23.90;97.20;;;;;;5064615;28;19917;-75
2022/11/11 06:15:56;;;;;;;;;;;23.90;97.30;;;;;;5057677;28;19924;-76
2022/11/11 06:18:23;;;;;;;;;;;23.70;97.30;;;;;;5066890;28;19928;-74
2022/11/11 06:20:56;;;;;;;;;;;23.70;97.70;;;;;;5061850;28;19920;-75
2022/11/11 06:23:23;;;;;;;;;;;23.60;98.00;;;;;;5066198;28;19916;-75
2022/11/11 06:28:35;;;;;;;;;;;23.50;98.40;;;;;;5070293;28;19942;-74
2022/11/11 06:31:02;;;;;;;;;;;23.50;98.20;;;;;;5066166;28;19920;-75
2022/11/11 06:33:28;;;;;;;;;;;23.50;98.40;;;;;;5070318;28;19920;-76
2022/11/11 06:35:55;;;;;;;;;;;23.50;98.50;;;;;;5062730;28;19912;-74
2022/11/11 06:38:22;;;;;;;;;;;23.50;98.50;;;;;;5066259;28;19967;-76
2022/11/11 06:40:49;;;;;;;;;;;23.60;98.50;;;;;;5068559;28;19920;-77
2022/11/11 06:43:15;;;;;;;;;;;23.60;98.50;;;;;;5067777;28;19928;-76
2022/11/11 06:45:42;;;;;;;;;;;23.70;98.60;;;;;;5069318;28;19916;-75
2022/11/11 06:48:09;;;;;;;;;;;23.60;98.80;;;;;;5065928;28;19922;-77
2022/11/11 06:50:35;;;;;;;;;;;23.60;99.30;;;;;;5051987;28;19912;-76
2022/11/11 06:53:12;;;;;;;;;;;23.40;99.40;;;;;;5059067;28;20263;-75
2022/11/11 06:55:38;;;;;;;;;;;23.40;99.90;;;;;;5066840;28;19961;-73
2022/11/11 06:58:06;;;;;;;;;;;23.40;99.90;;;;;;5062588;28;20018;-73
2022/11/11 07:00:33;;;;;;;;;;;23.50;99.90;;;;;;5068093;28;20394;-76
2022/11/11 07:03:00;;;;;;;;;;;23.60;99.90;;;;;;5068678;28;19946;-72
2022/11/11 07:05:27;;;;;;;;;;;23.80;99.90;;;;;;5069746;28;19912;-73
2022/11/11 07:07:56;;;;;;;;;;;23.80;99.60;;;;;;5068177;28;19947;-76
2022/11/11 07:10:23;;;;;;;;;;;23.80;99.90;;;;;;5062228;28;19917;-76
2022/11/11 07:12:53;;;;;;;;;;;23.60;99.70;;;;;;5064011;28;19916;-76
2022/11/11 07:15:19;;;;;;;;;;;23.50;99.90;;;;;;5065100;28;19919;-75
2022/11/11 07:17:46;;;;;;;;;;;23.40;99.90;;;;;;5068342;28;20302;-75
2022/11/11 07:20:13;;;;;;;;;;;23.30;99.90;;;;;;5068429;28;19959;-76
2022/11/11 07:22:43;;;;;;;;;;;23.20;99.90;;;;;;5060254;28;19917;-75
2022/11/11 07:25:09;;;;;;;;;;;23.10;99.90;;;;;;5066936;28;20768;-76
2022/11/11 07:27:37;;;;;;;;;;;23.10;99.90;;;;;;5064893;28;20373;-74
2022/11/11 07:30:04;;;;;;;;;;;23.10;99.90;;;;;;5067692;28;19916;-76
2022/11/11 07:32:31;;;;;;;;;;;23.00;99.90;;;;;;5065852;28;20003;-76
2022/11/11 07:34:58;;;;;;;;;;;22.90;99.90;;;;;;5051641;28;20351;-75
2022/11/11 07:37:25;;;;;;;;;;;22.90;99.90;;;;;;5064287;28;20003;-76
2022/11/11 07:39:52;;;;;;;;;;;22.80;99.90;;;;;;5065920;28;19952;-77
2022/11/11 07:42:18;;;;;;;;;;;22.70;99.90;;;;;;5065337;28;19921;-76
2022/11/11 07:44:45;;;;;;;;;;;22.70;99.90;;;;;;5058768;28;20019;-77
2022/11/11 07:47:12;;;;;;;;;;;22.70;99.90;;;;;;5070032;28;20283;-76
2022/11/11 07:49:38;;;;;;;;;;;22.70;99.90;;;;;;5068762;28;20347;-77
2022/11/11 07:52:05;;;;;;;;;;;22.70;99.90;;;;;;5067988;28;19941;-77
2022/11/11 07:54:32;;;;;;;;;;;22.60;99.90;;;;;;5054317;28;19917;-77
2022/11/11 07:56:58;;;;;;;;;;;22.60;99.90;;;;;;5067056;28;19916;-77
2022/11/11 07:59:25;;;;;;;;;;;22.50;99.90;;;;;;5067938;28;19920;-76
2022/11/11 08:01:52;;;;;;;;;;;22.50;99.90;;;;;;5067246;28;19913;-75
2022/11/11 08:04:18;;;;;;;;;;;22.40;99.90;;;;;;5056037;28;20342;-75
2022/11/11 08:06:45;;;;;;;;;;;22.40;99.90;;;;;;5059758;28;20446;-74
2022/11/11 08:09:12;;;;;;;;;;;22.30;99.90;;;;;;5069914;28;20267;-74
2022/11/11 08:14:23;;;;;;;;;;;22.20;99.90;;;;;;5061638;28;19919;-76
2022/11/11 08:16:50;;;;;;;;;;;22.10;99.90;;;;;;5066068;28;19917;-75
2022/11/11 08:19:16;;;;;;;;;;;22.10;99.90;;;;;;5070160;28;20025;-74
2022/11/11 08:21:43;;;;;;;;;;;22.00;99.90;;;;;;5069083;28;20051;-76
2022/11/11 08:24:10;;;;;;;;;;;21.90;99.90;;;;;;5062818;28;19927;-76
2022/11/11 08:26:37;;;;;;;;;;;21.90;99.90;;;;;;5062483;28;19923;-76
2022/11/11 08:29:03;;;;;;;;;;;21.80;99.90;;;;;;5068570;28;19919;-74
2022/11/11 08:31:31;;;;;;;;;;;21.60;99.90;;;;;;5065310;28;19917;-72
2022/11/11 08:33:57;;;;;;;;;;;21.60;99.90;;;;;;5068154;28;19917;-75
2022/11/11 08:36:25;;;;;;;;;;;21.60;99.90;;;;;;5067231;28;19912;-74
2022/11/11 08:38:52;;;;;;;;;;;21.50;99.90;;;;;;5069435;28;20008;-76
2022/11/11 08:41:20;;;;;;;;;;;21.50;99.90;;;;;;5073645;28;19917;-77
2022/11/11 08:43:47;;;;;;;;;;;21.40;99.90;;;;;;5071887;28;19966;-76
2022/11/11 08:46:13;;;;;;;;;;;21.30;99.90;;;;;;5070088;28;19927;-77
2022/11/11 08:48:40;;;;;;;;;;;21.30;99.90;;;;;;5072989;28;19916;-75
2022/11/11 08:51:07;;;;;;;;;;;21.10;99.90;;;;;;5073705;28;19913;-76
2022/11/11 08:53:33;;;;;;;;;;;21.10;99.90;;;;;;5072508;28;20396;-77
2022/11/11 08:56:01;;;;;;;;;;;21.00;99.90;;;;;;5074553;28;19995;-74
2022/11/11 08:58:28;;;;;;;;;;;21.00;99.90;;;;;;5071406;28;19927;-77
2022/11/11 09:00:54;;;;;;;;;;;21.00;99.90;;;;;;5074282;28;19912;-78
2022/11/11 09:03:21;;;;;;;;;;;21.00;99.90;;;;;;5071493;28;20333;-76
2022/11/11 09:05:48;;;;;;;;;;;20.90;99.90;;;;;;5068070;28;19912;-76
2022/11/11 09:08:15;;;;;;;;;;;20.80;99.90;;;;;;5071141;28;20007;-76
2022/11/11 09:10:42;;;;;;;;;;;20.80;99.90;;;;;;5074231;28;20350;-77
2022/11/11 09:13:08;;;;;;;;;;;20.80;99.90;;;;;;5072072;28;19914;-75
2022/11/11 09:15:35;;;;;;;;;;;20.80;99.90;;;;;;5065995;28;19917;-78
2022/11/11 09:18:02;;;;;;;;;;;20.80;99.90;;;;;;5067613;28;19923;-76
2022/11/11 09:20:29;;;;;;;;;;;20.70;99.90;;;;;;5065119;28;19913;-77
2022/11/11 09:22:56;;;;;;;;;;;20.60;99.90;;;;;;5064991;28;20102;-77
2022/11/11 09:25:22;;;;;;;;;;;20.60;99.90;;;;;;5073601;28;19912;-74
2022/11/11 09:27:58;;;;;;;;;;;20.50;99.90;;;;;;5070093;28;19966;-75
2022/11/11 09:30:26;;;;;;;;;;;20.40;99.90;;;;;;5073634;28;20354;-76
2022/11/11 09:32:53;;;;;;;;;;;20.40;99.90;;;;;;5064457;28;20024;-77
2022/11/11 09:35:20;;;;;;;;;;;20.30;99.90;;;;;;5073292;28;20569;-75
2022/11/11 09:37:56;;;;;;;;;;;20.20;99.90;;;;;;5070425;28;19917;-75
2022/11/11 09:40:23;;;;;;;;;;;20.20;99.90;;;;;;5071872;28;20303;-74
2022/11/11 09:43:03;;;;;;;;;;;20.20;99.90;;;;;;5071913;28;19927;-75
2022/11/11 09:45:36;;;;;;;;;;;20.20;99.90;;;;;;5073633;28;19912;-76
2022/11/11 09:48:15;;;;;;;;;;;20.10;99.90;;;;;;5065655;28;19909;-79
2022/11/11 09:50:42;;;;;;;;;;;20.10;99.90;;;;;;5066551;28;19916;-76
2022/11/11 09:53:23;;;;;;;;;;;20.00;99.90;;;;;;5070676;28;19920;-76
2022/11/11 09:55:58;;;;;;;;;;;19.90;99.90;;;;;;5072326;28;19916;-74
2022/11/11 09:58:30;;;;;;;;;;;19.90;99.90;;;;;;5069097;28;20274;-77
2022/11/11 10:01:17;;;;;;;;;;;19.90;99.90;;;;;;5071102;28;20649;-76
2022/11/11 10:03:49;;;;;;;;;;;19.90;99.90;;;;;;5068586;28;19920;-77
2022/11/11 10:06:27;;;;;;;;;;;19.90;99.90;;;;;;5072305;28;20008;-76
2022/11/11 10:09:14;;;;;;;;;;;19.90;99.90;;;;;;5070966;28;19943;-73
2022/11/11 10:11:53;;;;;;;;;;;19.90;99.90;;;;;;5042138;28;19955;-77
2022/11/11 10:14:19;;;;;;;;;;;19.80;99.90;;;;;;5071702;28;20370;-77
2022/11/11 10:16:58;;;;;;;;;;;19.80;99.90;;;;;;5070441;28;19923;-77
2022/11/11 10:19:54;;;;;;;;;;;19.70;99.90;;;;;;5071103;28;19920;-75
2022/11/11 10:22:22;;;;;;;;;;;19.70;99.90;;;;;;5046174;28;19934;-76
2022/11/11 10:25:02;;;;;;;;;;;19.60;99.90;;;;;;5070589;28;19912;-75
2022/11/11 10:27:30;;;;;;;;;;;19.60;99.90;;;;;;5067569;28;19978;-77
2022/11/11 10:30:00;;;;;;;;;;;19.50;99.90;;;;;;5053422;28;19908;-77
2022/11/11 10:32:32;;;;;;;;;;;19.60;99.90;;;;;;5071858;28;19956;-75
2022/11/11 10:35:05;;;;;;;;;;;19.50;99.90;;;;;;5071918;28;19919;-76
2022/11/11 10:37:41;;;;;;;;;;;19.50;99.90;;;;;;5070940;28;20008;-76
2022/11/11 10:40:20;;;;;;;;;;;19.50;99.90;;;;;;5061999;28;20424;-75
2022/11/11 10:42:47;;;;;;;;;;;19.40;99.90;;;;;;5063245;28;19913;-76
2022/11/11 10:45:19;;;;;;;;;;;19.40;99.90;;;;;;5056053;28;19951;-76
2022/11/11 10:48:15;;;;;;;;;;;19.30;99.90;;;;;;5070429;28;19920;-77
2022/11/11 10:50:43;;;;;;;;;;;19.30;99.90;;;;;;5048368;28;19916;-76
2022/11/11 10:53:17;;;;;;;;;;;19.30;99.90;;;;;;5059870;28;20374;-76
2022/11/11 10:55:48;;;;;;;;;;;19.20;99.90;;;;;;5069235;28;19919;-77
2022/11/11 10:58:20;;;;;;;;;;;19.20;99.90;;;;;;5066696;28;19927;-77
2022/11/11 11:00:49;;;;;;;;;;;19.10;99.90;;;;;;5071576;28;20006;-77
2022/11/11 11:03:20;;;;;;;;;;;19.00;99.90;;;;;;5068161;28;20158;-77
2022/11/11 11:05:47;;;;;;;;;;;19.00;99.90;;;;;;5072053;28;20011;-76
2022/11/11 11:08:23;;;;;;;;;;;19.00;99.90;;;;;;5065738;28;19963;-77
2022/11/11 11:11:01;;;;;;;;;;;19.00;99.90;;;;;;5068292;28;19920;-76
2022/11/11 11:13:27;;;;;;;;;;;19.00;99.90;;;;;;5061098;28;19913;-73
2022/11/11 11:15:57;;;;;;;;;;;18.90;99.90;;;;;;5065831;28;19920;-75
2022/11/11 11:18:24;;;;;;;;;;;18.90;99.90;;;;;;5051801;28;20260;-76
2022/11/11 11:20:55;;;;;;;;;;;18.80;99.90;;;;;;5070501;28;19913;-74
2022/11/11 11:23:42;;;;;;;;;;;18.80;99.90;;;;;;5068710;28;20263;-76
2022/11/11 11:26:09;;;;;;;;;;;18.80;99.90;;;;;;5067766;28;19958;-77
2022/11/11 11:28:52;;;;;;;;;;;18.80;99.90;;;;;;5067705;28;20328;-75
2022/11/11 11:31:24;;;;;;;;;;;18.70;99.90;;;;;;5062126;28;19938;-76
2022/11/11 11:33:52;;;;;;;;;;;18.70;99.90;;;;;;5067758;28;19912;-76
2022/11/11 11:36:19;;;;;;;;;;;18.60;99.90;;;;;;5072013;28;19920;-77
2022/11/11 11:38:52;;;;;;;;;;;18.60;99.90;;;;;;5068968;28;19928;-76
2022/11/11 11:41:38;;;;;;;;;;;18.60;99.90;;;;;;5071151;28;19939;-78
2022/11/11 11:44:24;;;;;;;;;;;18.50;99.90;;;;;;5065948;28;19921;-78
2022/11/11 11:46:51;;;;;;;;;;;18.50;99.90;;;;;;5067959;28;19923;-77
2022/11/11 11:49:50;;;;;;;;;;;18.50;99.90;;;;;;5069568;28;19947;-74
2022/11/11 11:52:32;;;;;;;;;;;18.40;99.90;;;;;;5042063;28;19976;-78
2022/11/11 11:55:02;;;;;;;;;;;18.40;99.90;;;;;;5070954;28;19917;-77
2022/11/11 11:57:43;;;;;;;;;;;18.40;99.90;;;;;;5068872;28;19970;-77
2022/11/11 12:00:30;;;;;;;;;;;18.30;99.90;;;;;;5070867;28;19956;-77
2022/11/11 12:03:03;;;;;;;;;;;18.20;99.90;;;;;;5067394;28;19916;-77
2022/11/11 12:05:35;;;;;;;;;;;18.20;99.90;;;;;;5058936;28;20003;-76
2022/11/11 12:08:17;;;;;;;;;;;18.20;99.90;;;;;;5065126;28;19920;-76
2022/11/11 12:10:56;;;;;;;;;;;18.10;99.90;;;;;;5071817;28;19920;-78
2022/11/11 12:13:34;;;;;;;;;;;18.10;99.90;;;;;;5060357;28;19913;-73
2022/11/11 12:16:00;;;;;;;;;;;18.00;99.90;;;;;;5057426;28;20074;-74
2022/11/11 12:18:45;;;;;;;;;;;18.00;99.90;;;;;;5071711;28;20062;-75
2022/11/11 12:21:16;;;;;;;;;;;18.00;99.90;;;;;;5072503;28;19917;-77
2022/11/11 12:24:17;;;;;;;;;;;17.90;99.90;;;;;;5071957;28;19912;-75
2022/11/11 12:27:10;;;;;;;;;;;17.90;99.90;;;;;;4957990;28;20001;-73
2022/11/11 12:29:40;;;;;;;;;;;17.90;99.90;;;;;;5047078;28;20375;-74
2022/11/11 12:32:15;;;;;;;;;;;17.80;99.90;;;;;;5070201;28;19912;-74
2022/11/11 12:34:42;;;;;;;;;;;17.90;99.90;;;;;;5072925;28;19920;-73
2022/11/11 12:37:12;;;;;;;;;;;17.80;99.90;;;;;;5069975;28;19908;-74
2022/11/11 12:39:54;;;;;;;;;;;17.80;99.90;;;;;;5069832;28;20007;-74
2022/11/11 12:42:43;;;;;;;;;;;17.80;99.90;;;;;;5072421;28;20331;-73
2022/11/11 12:45:15;;;;;;;;;;;17.70;99.90;;;;;;5073510;28;19912;-73
2022/11/11 12:47:52;;;;;;;;;;;17.70;99.90;;;;;;5069244;28;21075;-74
2022/11/11 12:50:36;;;;;;;;;;;17.70;99.90;;;;;;5073986;28;19913;-72
2022/11/11 12:53:09;;;;;;;;;;;17.70;99.90;;;;;;5065669;28;19908;-74
2022/11/11 12:55:42;;;;;;;;;;;17.70;99.90;;;;;;5070348;28;19928;-74
2022/11/11 12:58:28;;;;;;;;;;;17.60;99.90;;;;;;5068848;28;19931;-75
2022/11/11 13:01:01;;;;;;;;;;;17.60;99.90;;;;;;5068734;28;19975;-73
2022/11/11 13:03:30;;;;;;;;;;;17.50;99.90;;;;;;5070888;28;19913;-74
2022/11/11 13:06:26;;;;;;;;;;;17.50;99.90;;;;;;5071834;28;20389;-73
2022/11/11 13:08:52;;;;;;;;;;;17.50;99.90;;;;;;5012168;28;19930;-72
2022/11/11 13:11:33;;;;;;;;;;;17.50;99.90;;;;;;5069292;28;19916;-72
2022/11/11 13:14:25;;;;;;;;;;;17.50;99.90;;;;;;5071070;28;20011;-72
2022/11/11 13:16:55;;;;;;;;;;;17.50;99.90;;;;;;5058806;28;21333;-73
2022/11/11 13:19:21;;;;;;;;;;;17.40;99.90;;;;;;5061583;28;19920;-74
2022/11/11 13:21:52;;;;;;;;;;;17.40;99.90;;;;;;5065035;28;19920;-72
2022/11/11 13:24:20;;;;;;;;;;;17.40;99.90;;;;;;5070410;28;20378;-77
2022/11/11 13:26:49;;;;;;;;;;;17.40;99.90;;;;;;5065212;28;19916;-75
2022/11/11 13:29:36;;;;;;;;;;;17.40;99.90;;;;;;5068265;28;19912;-76
2022/11/11 13:32:05;;;;;;;;;;;17.40;99.90;;;;;;5060607;28;20369;-77
2022/11/11 13:34:33;;;;;;;;;;;17.40;99.90;;;;;;5065174;28;19912;-77
2022/11/11 13:37:02;;;;;;;;;;;17.30;99.90;;;;;;5059512;28;19938;-76
2022/11/11 13:39:37;;;;;;;;;;;17.40;99.90;;;;;;5070867;28;19927;-75
2022/11/11 13:42:05;;;;;;;;;;;17.30;99.90;;;;;;5069191;28;19979;-77
2022/11/11 13:44:39;;;;;;;;;;;17.30;99.90;;;;;;5068966;28;19947;-77
2022/11/11 13:47:10;;;;;;;;;;;17.30;99.90;;;;;;5070921;28;19924;-76
2022/11/11 13:49:57;;;;;;;;;;;17.30;99.90;;;;;;5071595;28;19999;-76
2022/11/11 13:52:26;;;;;;;;;;;17.20;99.90;;;;;;5069226;28;20306;-76
2022/11/11 13:54:59;;;;;;;;;;;17.10;99.90;;;;;;5060712;28;20011;-75
2022/11/11 13:57:28;;;;;;;;;;;17.10;99.90;;;;;;5057524;28;20493;-74
2022/11/11 14:00:00;;;;;;;;;;;17.00;99.90;;;;;;5067758;28;19920;-73
2022/11/11 14:02:28;;;;;;;;;;;16.90;99.90;;;;;;5069465;28;19916;-75
2022/11/11 14:05:04;;;;;;;;;;;16.90;99.90;;;;;;5070431;28;19912;-74
2022/11/11 14:07:43;;;;;;;;;;;16.80;99.90;;;;;;5070454;28;19931;-73
2022/11/11 14:10:30;;;;;;;;;;;16.80;99.90;;;;;;5068012;28;20434;-75
2022/11/11 14:12:57;;;;;;;;;;;16.70;99.90;;;;;;5061683;28;19924;-75
2022/11/11 14:15:37;;;;;;;;;;;16.60;99.90;;;;;;5069592;28;20420;-76
2022/11/11 14:18:24;;;;;;;;;;;16.60;99.90;;;;;;5069097;28;19938;-74
2022/11/11 14:20:52;;;;;;;;;;;16.60;99.90;;;;;;5052621;28;19916;-72
2022/11/11 14:23:18;;;;;;;;;;;16.60;99.90;;;;;;5059942;28;19913;-74
2022/11/11 14:25:49;;;;;;;;;;;16.60;99.90;;;;;;5071594;28;19961;-76
2022/11/11 14:28:21;;;;;;;;;;;16.60;99.90;;;;;;5062154;28;19913;-74
2022/11/11 14:30:51;;;;;;;;;;;16.60;99.90;;;;;;5072133;28;19931;-74
2022/11/11 14:33:18;;;;;;;;;;;16.60;99.90;;;;;;5056547;28;20385;-74
2022/11/11 14:35:59;;;;;;;;;;;16.60;99.90;;;;;;5068259;28;20376;-74
2022/11/11 14:38:29;;;;;;;;;;;16.60;99.90;;;;;;5063737;28;20023;-76
2022/11/11 14:40:56;;;;;;;;;;;16.50;99.90;;;;;;5070855;28;19916;-75
2022/11/11 14:43:33;;;;;;;;;;;16.50;99.90;;;;;;5059786;28;19963;-75
2022/11/11 14:46:01;;;;;;;;;;;16.50;99.90;;;;;;5070625;28;19977;-72
2022/11/11 14:48:46;;;;;;;;;;;16.50;99.90;;;;;;5058384;28;19930;-74
2022/11/11 14:51:41;;;;;;;;;;;16.50;99.90;;;;;;5034784;28;19913;-74
2022/11/11 14:54:28;;;;;;;;;;;16.40;99.90;;;;;;5047161;28;19919;-74
2022/11/11 14:57:02;;;;;;;;;;;16.40;99.90;;;;;;5044663;28;19917;-74
2022/11/11 14:59:29;;;;;;;;;;;16.30;99.90;;;;;;5063754;28;19943;-75
2022/11/11 15:01:57;;;;;;;;;;;16.30;99.90;;;;;;5071454;28;19920;-75
2022/11/11 15:04:25;;;;;;;;;;;16.20;99.90;;;;;;5072229;28;19950;-73
2022/11/11 15:06:54;;;;;;;;;;;16.20;99.90;;;;;;5067777;28;19916;-73
2022/11/11 15:09:43;;;;;;;;;;;16.20;99.90;;;;;;5069895;28;19960;-75
2022/11/11 15:12:22;;;;;;;;;;;16.10;99.90;;;;;;5063483;28;19916;-76
2022/11/11 15:15:01;;;;;;;;;;;16.20;99.90;;;;;;5071399;28;19912;-74
2022/11/11 15:17:34;;;;;;;;;;;16.20;99.90;;;;;;5067024;28;19958;-75
2022/11/11 15:20:14;;;;;;;;;;;16.20;99.90;;;;;;5070799;28;20347;-76
2022/11/11 15:23:02;;;;;;;;;;;16.20;99.90;;;;;;5070975;28;19942;-75
2022/11/11 15:25:46;;;;;;;;;;;16.20;99.90;;;;;;5071774;28;19913;-74
2022/11/11 15:28:19;;;;;;;;;;;16.20;99.90;;;;;;5064186;28;19927;-76
2022/11/11 15:31:03;;;;;;;;;;;16.20;99.90;;;;;;5064565;28;19927;-76
2022/11/11 15:33:30;;;;;;;;;;;16.10;99.90;;;;;;5068393;28;20450;-72
2022/11/11 15:36:03;;;;;;;;;;;16.10;99.90;;;;;;5070833;28;19993;-75
2022/11/11 15:38:30;;;;;;;;;;;16.10;99.90;;;;;;5069777;28;20042;-75
2022/11/11 15:40:58;;;;;;;;;;;16.10;99.90;;;;;;5069541;28;19916;-76
2022/11/11 15:43:29;;;;;;;;;;;16.10;99.90;;;;;;5071307;28;19921;-77
2022/11/11 15:45:58;;;;;;;;;;;16.00;99.90;;;;;;5058765;28;19928;-73
2022/11/11 15:48:54;;;;;;;;;;;16.00;99.90;;;;;;5056362;28;19912;-74
2022/11/11 15:51:32;;;;;;;;;;;16.00;99.90;;;;;;5042512;28;19908;-75
2022/11/11 15:54:18;;;;;;;;;;;15.90;99.90;;;;;;5075377;28;19913;-76